sensor_id;sensor_type;location;lat;lon;timestamp;P1;durP1;ratioP1;P2;durP2;ratioP2
38693;SDS011;24447;43.460;25.744;2023-03-24T00:02:24;22.50;;;9.27;;
38693;SDS011;24447;43.460;25.744;2023-03-24T00:04:52;30.02;;;11.77;;
38693;SDS011;24447;43.460;25.744;2023-03-24T00:07:22;26.63;;;9.63;;
38693;SDS011;24447;43.460;25.744;2023-03-24T00:09:49;23.02;;;9.75;;
38693;SDS011;24447;43.460;25.744;2023-03-24T00:12:15;24.25;;;10.15;;
38693;SDS011;24447;43.460;25.744;2023-03-24T00:14:44;24.23;;;10.23;;
38693;SDS011;24447;43.460;25.744;2023-03-24T00:17:13;27.80;;;8.82;;
38693;SDS011;24447;43.460;25.744;2023-03-24T00:19:41;22.92;;;8.68;;
38693;SDS011;24447;43.460;25.744;2023-03-24T00:22:09;24.30;;;10.02;;
38693;SDS011;24447;43.460;25.744;2023-03-24T00:24:39;22.25;;;9.27;;
38693;SDS011;24447;43.460;25.744;2023-03-24T00:27:06;22.48;;;9.43;;
38693;SDS011;24447;43.460;25.744;2023-03-24T00:29:33;19.50;;;7.35;;
38693;SDS011;24447;43.460;25.744;2023-03-24T00:32:00;17.15;;;7.18;;
38693;SDS011;24447;43.460;25.744;2023-03-24T00:34:26;18.27;;;7.38;;
38693;SDS011;24447;43.460;25.744;2023-03-24T00:36:52;21.63;;;8.70;;
38693;SDS011;24447;43.460;25.744;2023-03-24T00:39:18;22.75;;;8.52;;
38693;SDS011;24447;43.460;25.744;2023-03-24T00:41:45;24.45;;;8.63;;
38693;SDS011;24447;43.460;25.744;2023-03-24T00:44:12;26.23;;;9.85;;
38693;SDS011;24447;43.460;25.744;2023-03-24T00:46:48;18.73;;;7.43;;
38693;SDS011;24447;43.460;25.744;2023-03-24T00:49:24;23.40;;;8.23;;
38693;SDS011;24447;43.460;25.744;2023-03-24T00:52:07;22.75;;;8.15;;
38693;SDS011;24447;43.460;25.744;2023-03-24T00:54:35;21.75;;;8.32;;
38693;SDS011;24447;43.460;25.744;2023-03-24T00:57:02;24.65;;;7.75;;
38693;SDS011;24447;43.460;25.744;2023-03-24T00:59:29;21.45;;;8.27;;
38693;SDS011;24447;43.460;25.744;2023-03-24T01:01:55;22.77;;;7.72;;
38693;SDS011;24447;43.460;25.744;2023-03-24T01:04:21;22.80;;;8.25;;
38693;SDS011;24447;43.460;25.744;2023-03-24T01:06:51;22.55;;;9.27;;
38693;SDS011;24447;43.460;25.744;2023-03-24T01:11:48;21.38;;;8.70;;
38693;SDS011;24447;43.460;25.744;2023-03-24T01:14:14;20.98;;;8.05;;
38693;SDS011;24447;43.460;25.744;2023-03-24T01:16:41;25.92;;;8.77;;
38693;SDS011;24447;43.460;25.744;2023-03-24T01:19:07;19.05;;;7.05;;
38693;SDS011;24447;43.460;25.744;2023-03-24T01:21:34;20.25;;;7.65;;
38693;SDS011;24447;43.460;25.744;2023-03-24T01:24:01;19.85;;;7.82;;
38693;SDS011;24447;43.460;25.744;2023-03-24T01:26:29;21.92;;;8.10;;
38693;SDS011;24447;43.460;25.744;2023-03-24T01:28:55;23.45;;;9.32;;
38693;SDS011;24447;43.460;25.744;2023-03-24T01:31:21;30.88;;;9.88;;
38693;SDS011;24447;43.460;25.744;2023-03-24T01:33:47;29.88;;;11.38;;
38693;SDS011;24447;43.460;25.744;2023-03-24T01:36:13;29.63;;;10.95;;
38693;SDS011;24447;43.460;25.744;2023-03-24T01:38:39;26.58;;;8.43;;
38693;SDS011;24447;43.460;25.744;2023-03-24T01:41:05;22.73;;;9.32;;
38693;SDS011;24447;43.460;25.744;2023-03-24T01:43:32;21.52;;;8.25;;
38693;SDS011;24447;43.460;25.744;2023-03-24T01:46:01;22.27;;;8.40;;
38693;SDS011;24447;43.460;25.744;2023-03-24T01:51:11;23.75;;;8.57;;
38693;SDS011;24447;43.460;25.744;2023-03-24T01:54:04;21.25;;;9.05;;
38693;SDS011;24447;43.460;25.744;2023-03-24T01:56:49;23.73;;;8.75;;
38693;SDS011;24447;43.460;25.744;2023-03-24T01:59:20;18.10;;;7.03;;
38693;SDS011;24447;43.460;25.744;2023-03-24T02:01:48;24.08;;;8.15;;
38693;SDS011;24447;43.460;25.744;2023-03-24T02:04:16;18.85;;;8.02;;
38693;SDS011;24447;43.460;25.744;2023-03-24T02:06:43;20.77;;;7.50;;
38693;SDS011;24447;43.460;25.744;2023-03-24T02:09:10;22.00;;;7.97;;
38693;SDS011;24447;43.460;25.744;2023-03-24T02:11:38;24.77;;;11.30;;
38693;SDS011;24447;43.460;25.744;2023-03-24T02:14:05;26.80;;;11.18;;
38693;SDS011;24447;43.460;25.744;2023-03-24T02:51:39;17.92;;;6.75;;
38693;SDS011;24447;43.460;25.744;2023-03-24T02:56:46;21.45;;;8.23;;
38693;SDS011;24447;43.460;25.744;2023-03-24T02:59:28;23.23;;;8.80;;
38693;SDS011;24447;43.460;25.744;2023-03-24T03:02:11;20.13;;;7.22;;
38693;SDS011;24447;43.460;25.744;2023-03-24T03:04:44;23.60;;;8.30;;
38693;SDS011;24447;43.460;25.744;2023-03-24T03:07:14;23.15;;;10.52;;
38693;SDS011;24447;43.460;25.744;2023-03-24T03:09:53;28.80;;;11.45;;
38693;SDS011;24447;43.460;25.744;2023-03-24T03:12:21;24.33;;;10.15;;
38693;SDS011;24447;43.460;25.744;2023-03-24T03:14:48;21.65;;;7.25;;
38693;SDS011;24447;43.460;25.744;2023-03-24T03:17:18;35.67;;;12.93;;
38693;SDS011;24447;43.460;25.744;2023-03-24T03:19:48;38.97;;;15.05;;
38693;SDS011;24447;43.460;25.744;2023-03-24T03:22:18;27.08;;;9.82;;
38693;SDS011;24447;43.460;25.744;2023-03-24T03:24:48;21.83;;;9.10;;
38693;SDS011;24447;43.460;25.744;2023-03-24T03:27:18;22.45;;;8.35;;
38693;SDS011;24447;43.460;25.744;2023-03-24T03:29:48;21.00;;;8.13;;
38693;SDS011;24447;43.460;25.744;2023-03-24T03:32:20;22.15;;;8.88;;
38693;SDS011;24447;43.460;25.744;2023-03-24T03:41:01;23.63;;;8.25;;
38693;SDS011;24447;43.460;25.744;2023-03-24T03:43:25;20.05;;;8.25;;
38693;SDS011;24447;43.460;25.744;2023-03-24T03:45:52;23.92;;;8.07;;
38693;SDS011;24447;43.460;25.744;2023-03-24T03:48:19;19.17;;;7.38;;
38693;SDS011;24447;43.460;25.744;2023-03-24T03:50:45;15.98;;;7.45;;
38693;SDS011;24447;43.460;25.744;2023-03-24T03:53:12;23.25;;;10.15;;
38693;SDS011;24447;43.460;25.744;2023-03-24T03:55:40;21.42;;;8.05;;
38693;SDS011;24447;43.460;25.744;2023-03-24T03:58:06;23.35;;;8.93;;
38693;SDS011;24447;43.460;25.744;2023-03-24T04:00:32;26.27;;;9.43;;
38693;SDS011;24447;43.460;25.744;2023-03-24T04:10:14;21.23;;;8.00;;
38693;SDS011;24447;43.460;25.744;2023-03-24T04:14:55;22.27;;;7.95;;
38693;SDS011;24447;43.460;25.744;2023-03-24T04:23:04;22.85;;;8.38;;
38693;SDS011;24447;43.460;25.744;2023-03-24T04:30:57;60.75;;;25.75;;
38693;SDS011;24447;43.460;25.744;2023-03-24T04:36:21;22.25;;;9.90;;
38693;SDS011;24447;43.460;25.744;2023-03-24T04:38:51;28.25;;;11.15;;
38693;SDS011;24447;43.460;25.744;2023-03-24T04:41:19;34.17;;;15.32;;
38693;SDS011;24447;43.460;25.744;2023-03-24T04:43:46;30.25;;;11.32;;
38693;SDS011;24447;43.460;25.744;2023-03-24T04:46:13;23.38;;;9.85;;
38693;SDS011;24447;43.460;25.744;2023-03-24T04:48:43;22.55;;;8.13;;
38693;SDS011;24447;43.460;25.744;2023-03-24T04:51:12;22.35;;;7.55;;
38693;SDS011;24447;43.460;25.744;2023-03-24T04:53:39;15.88;;;7.78;;
38693;SDS011;24447;43.460;25.744;2023-03-24T04:58:50;23.88;;;9.98;;
38693;SDS011;24447;43.460;25.744;2023-03-24T05:01:16;21.80;;;8.50;;
38693;SDS011;24447;43.460;25.744;2023-03-24T05:03:45;19.23;;;6.32;;
38693;SDS011;24447;43.460;25.744;2023-03-24T05:06:11;17.63;;;6.07;;
38693;SDS011;24447;43.460;25.744;2023-03-24T05:08:38;16.23;;;5.45;;
38693;SDS011;24447;43.460;25.744;2023-03-24T05:11:05;15.30;;;6.47;;
38693;SDS011;24447;43.460;25.744;2023-03-24T05:13:31;13.93;;;5.35;;
38693;SDS011;24447;43.460;25.744;2023-03-24T05:15:57;20.52;;;6.82;;
38693;SDS011;24447;43.460;25.744;2023-03-24T05:18:23;30.95;;;5.53;;
38693;SDS011;24447;43.460;25.744;2023-03-24T05:20:49;22.63;;;7.68;;
38693;SDS011;24447;43.460;25.744;2023-03-24T05:23:15;25.27;;;7.80;;
38693;SDS011;24447;43.460;25.744;2023-03-24T05:25:41;36.38;;;13.55;;
38693;SDS011;24447;43.460;25.744;2023-03-24T05:28:07;17.02;;;8.27;;
38693;SDS011;24447;43.460;25.744;2023-03-24T05:30:33;22.40;;;10.55;;
38693;SDS011;24447;43.460;25.744;2023-03-24T05:32:59;17.45;;;6.57;;
38693;SDS011;24447;43.460;25.744;2023-03-24T05:35:25;23.75;;;9.82;;
38693;SDS011;24447;43.460;25.744;2023-03-24T05:37:51;19.23;;;8.10;;
38693;SDS011;24447;43.460;25.744;2023-03-24T05:40:17;22.38;;;8.45;;
38693;SDS011;24447;43.460;25.744;2023-03-24T05:42:43;21.55;;;7.85;;
38693;SDS011;24447;43.460;25.744;2023-03-24T05:45:09;32.10;;;10.55;;
38693;SDS011;24447;43.460;25.744;2023-03-24T05:47:36;25.70;;;10.93;;
38693;SDS011;24447;43.460;25.744;2023-03-24T05:50:02;30.52;;;10.32;;
38693;SDS011;24447;43.460;25.744;2023-03-24T05:52:29;39.78;;;14.52;;
38693;SDS011;24447;43.460;25.744;2023-03-24T05:54:55;35.97;;;16.17;;
38693;SDS011;24447;43.460;25.744;2023-03-24T05:57:22;49.78;;;21.45;;
38693;SDS011;24447;43.460;25.744;2023-03-24T05:59:48;69.93;;;27.83;;
38693;SDS011;24447;43.460;25.744;2023-03-24T06:02:14;81.53;;;37.13;;
38693;SDS011;24447;43.460;25.744;2023-03-24T06:04:40;100.93;;;50.40;;
38693;SDS011;24447;43.460;25.744;2023-03-24T06:07:10;80.15;;;40.83;;
38693;SDS011;24447;43.460;25.744;2023-03-24T06:09:36;71.70;;;33.55;;
38693;SDS011;24447;43.460;25.744;2023-03-24T06:12:06;43.55;;;20.92;;
38693;SDS011;24447;43.460;25.744;2023-03-24T06:14:33;36.50;;;14.38;;
38693;SDS011;24447;43.460;25.744;2023-03-24T06:16:59;31.20;;;13.57;;
38693;SDS011;24447;43.460;25.744;2023-03-24T06:19:25;32.45;;;15.70;;
38693;SDS011;24447;43.460;25.744;2023-03-24T06:21:54;25.38;;;11.63;;
38693;SDS011;24447;43.460;25.744;2023-03-24T06:24:24;31.85;;;11.75;;
38693;SDS011;24447;43.460;25.744;2023-03-24T06:26:51;27.10;;;10.45;;
38693;SDS011;24447;43.460;25.744;2023-03-24T06:29:17;37.60;;;19.25;;
38693;SDS011;24447;43.460;25.744;2023-03-24T06:31:43;33.42;;;16.40;;
38693;SDS011;24447;43.460;25.744;2023-03-24T06:34:10;45.78;;;25.33;;
38693;SDS011;24447;43.460;25.744;2023-03-24T06:36:36;36.70;;;19.10;;
38693;SDS011;24447;43.460;25.744;2023-03-24T06:39:02;52.30;;;26.98;;
38693;SDS011;24447;43.460;25.744;2023-03-24T06:41:30;32.83;;;16.58;;
38693;SDS011;24447;43.460;25.744;2023-03-24T06:43:56;29.02;;;13.85;;
38693;SDS011;24447;43.460;25.744;2023-03-24T06:46:22;29.65;;;14.75;;
38693;SDS011;24447;43.460;25.744;2023-03-24T06:48:48;28.35;;;14.00;;
38693;SDS011;24447;43.460;25.744;2023-03-24T06:51:15;24.95;;;12.25;;
38693;SDS011;24447;43.460;25.744;2023-03-24T06:53:41;23.08;;;10.70;;
38693;SDS011;24447;43.460;25.744;2023-03-24T06:56:09;19.02;;;8.55;;
38693;SDS011;24447;43.460;25.744;2023-03-24T06:58:40;21.80;;;10.25;;
38693;SDS011;24447;43.460;25.744;2023-03-24T07:01:07;19.40;;;8.65;;
38693;SDS011;24447;43.460;25.744;2023-03-24T07:03:33;22.33;;;8.23;;
38693;SDS011;24447;43.460;25.744;2023-03-24T07:05:59;18.38;;;8.02;;
38693;SDS011;24447;43.460;25.744;2023-03-24T07:08:25;18.17;;;8.98;;
38693;SDS011;24447;43.460;25.744;2023-03-24T07:10:51;19.60;;;8.30;;
38693;SDS011;24447;43.460;25.744;2023-03-24T07:13:17;15.73;;;6.30;;
38693;SDS011;24447;43.460;25.744;2023-03-24T07:15:43;16.65;;;7.57;;
38693;SDS011;24447;43.460;25.744;2023-03-24T07:18:09;15.23;;;7.30;;
38693;SDS011;24447;43.460;25.744;2023-03-24T07:20:37;18.90;;;8.90;;
38693;SDS011;24447;43.460;25.744;2023-03-24T07:23:02;19.13;;;8.07;;
38693;SDS011;24447;43.460;25.744;2023-03-24T07:25:28;18.50;;;7.28;;
38693;SDS011;24447;43.460;25.744;2023-03-24T07:27:55;17.25;;;6.45;;
38693;SDS011;24447;43.460;25.744;2023-03-24T07:30:21;20.33;;;8.65;;
38693;SDS011;24447;43.460;25.744;2023-03-24T07:32:47;16.67;;;7.90;;
38693;SDS011;24447;43.460;25.744;2023-03-24T07:35:14;17.33;;;8.35;;
38693;SDS011;24447;43.460;25.744;2023-03-24T07:37:41;21.63;;;7.40;;
38693;SDS011;24447;43.460;25.744;2023-03-24T07:40:08;16.95;;;7.20;;
38693;SDS011;24447;43.460;25.744;2023-03-24T07:42:40;12.90;;;6.38;;
38693;SDS011;24447;43.460;25.744;2023-03-24T07:45:10;12.48;;;6.65;;
38693;SDS011;24447;43.460;25.744;2023-03-24T07:47:37;16.48;;;6.82;;
38693;SDS011;24447;43.460;25.744;2023-03-24T07:50:04;16.65;;;5.90;;
38693;SDS011;24447;43.460;25.744;2023-03-24T07:52:35;13.93;;;5.88;;
38693;SDS011;24447;43.460;25.744;2023-03-24T07:55:08;11.75;;;6.35;;
38693;SDS011;24447;43.460;25.744;2023-03-24T07:57:36;14.98;;;6.13;;
38693;SDS011;24447;43.460;25.744;2023-03-24T08:00:06;27.05;;;7.22;;
38693;SDS011;24447;43.460;25.744;2023-03-24T08:02:42;13.98;;;5.72;;
38693;SDS011;24447;43.460;25.744;2023-03-24T08:05:10;15.70;;;6.35;;
38693;SDS011;24447;43.460;25.744;2023-03-24T08:07:42;18.92;;;6.05;;
38693;SDS011;24447;43.460;25.744;2023-03-24T08:10:09;14.27;;;5.35;;
38693;SDS011;24447;43.460;25.744;2023-03-24T08:12:37;12.10;;;5.50;;
38693;SDS011;24447;43.460;25.744;2023-03-24T08:15:04;11.18;;;5.50;;
38693;SDS011;24447;43.460;25.744;2023-03-24T08:17:31;11.65;;;5.22;;
38693;SDS011;24447;43.460;25.744;2023-03-24T08:19:57;13.27;;;5.63;;
38693;SDS011;24447;43.460;25.744;2023-03-24T08:22:23;13.27;;;6.05;;
38693;SDS011;24447;43.460;25.744;2023-03-24T08:24:49;13.75;;;5.95;;
38693;SDS011;24447;43.460;25.744;2023-03-24T08:27:15;14.93;;;6.22;;
38693;SDS011;24447;43.460;25.744;2023-03-24T08:29:41;13.23;;;6.18;;
38693;SDS011;24447;43.460;25.744;2023-03-24T08:32:08;18.85;;;6.07;;
38693;SDS011;24447;43.460;25.744;2023-03-24T08:34:34;11.82;;;5.90;;
38693;SDS011;24447;43.460;25.744;2023-03-24T08:37:00;13.23;;;5.45;;
38693;SDS011;24447;43.460;25.744;2023-03-24T08:39:26;8.52;;;4.20;;
38693;SDS011;24447;43.460;25.744;2023-03-24T08:41:52;12.02;;;5.20;;
38693;SDS011;24447;43.460;25.744;2023-03-24T08:44:19;6.78;;;3.97;;
38693;SDS011;24447;43.460;25.744;2023-03-24T08:46:45;10.63;;;5.10;;
38693;SDS011;24447;43.460;25.744;2023-03-24T08:49:11;13.93;;;5.47;;
38693;SDS011;24447;43.460;25.744;2023-03-24T08:51:37;12.88;;;5.43;;
38693;SDS011;24447;43.460;25.744;2023-03-24T08:54:03;14.30;;;5.25;;
38693;SDS011;24447;43.460;25.744;2023-03-24T08:56:29;14.05;;;5.88;;
38693;SDS011;24447;43.460;25.744;2023-03-24T08:58:56;13.10;;;5.35;;
38693;SDS011;24447;43.460;25.744;2023-03-24T09:01:23;11.60;;;5.38;;
38693;SDS011;24447;43.460;25.744;2023-03-24T09:03:49;14.57;;;5.45;;
38693;SDS011;24447;43.460;25.744;2023-03-24T09:06:15;11.05;;;4.97;;
38693;SDS011;24447;43.460;25.744;2023-03-24T09:08:41;12.38;;;5.13;;
38693;SDS011;24447;43.460;25.744;2023-03-24T09:11:13;12.77;;;5.07;;
38693;SDS011;24447;43.460;25.744;2023-03-24T09:13:40;12.15;;;5.03;;
38693;SDS011;24447;43.460;25.744;2023-03-24T09:16:06;12.13;;;5.22;;
38693;SDS011;24447;43.460;25.744;2023-03-24T09:18:32;12.30;;;4.53;;
38693;SDS011;24447;43.460;25.744;2023-03-24T09:20:58;10.75;;;5.15;;
38693;SDS011;24447;43.460;25.744;2023-03-24T09:23:24;13.95;;;5.57;;
38693;SDS011;24447;43.460;25.744;2023-03-24T09:25:53;16.92;;;6.88;;
38693;SDS011;24447;43.460;25.744;2023-03-24T09:28:19;31.27;;;10.60;;
38693;SDS011;24447;43.460;25.744;2023-03-24T09:30:46;12.40;;;5.18;;
38693;SDS011;24447;43.460;25.744;2023-03-24T09:33:12;8.20;;;4.43;;
38693;SDS011;24447;43.460;25.744;2023-03-24T09:35:38;12.95;;;5.05;;
38693;SDS011;24447;43.460;25.744;2023-03-24T09:38:05;11.55;;;5.25;;
38693;SDS011;24447;43.460;25.744;2023-03-24T09:40:32;11.73;;;4.72;;
38693;SDS011;24447;43.460;25.744;2023-03-24T09:43:03;11.88;;;4.43;;
38693;SDS011;24447;43.460;25.744;2023-03-24T09:45:42;11.82;;;5.05;;
38693;SDS011;24447;43.460;25.744;2023-03-24T09:51:11;9.82;;;4.65;;
38693;SDS011;24447;43.460;25.744;2023-03-24T09:54:02;10.55;;;4.82;;
38693;SDS011;24447;43.460;25.744;2023-03-24T09:56:25;10.23;;;4.65;;
38693;SDS011;24447;43.460;25.744;2023-03-24T10:01:25;12.20;;;4.97;;
38693;SDS011;24447;43.460;25.744;2023-03-24T10:03:56;11.38;;;4.00;;
38693;SDS011;24447;43.460;25.744;2023-03-24T10:06:24;11.15;;;4.78;;
38693;SDS011;24447;43.460;25.744;2023-03-24T10:17:19;10.82;;;4.68;;
38693;SDS011;24447;43.460;25.744;2023-03-24T10:23:33;9.32;;;4.63;;
38693;SDS011;24447;43.460;25.744;2023-03-24T10:31:52;12.23;;;4.90;;
38693;SDS011;24447;43.460;25.744;2023-03-24T10:34:23;10.93;;;4.93;;
38693;SDS011;24447;43.460;25.744;2023-03-24T10:36:54;9.38;;;4.15;;
38693;SDS011;24447;43.460;25.744;2023-03-24T10:39:22;11.73;;;4.88;;
38693;SDS011;24447;43.460;25.744;2023-03-24T10:41:51;12.77;;;4.72;;
38693;SDS011;24447;43.460;25.744;2023-03-24T10:46:46;9.30;;;4.55;;
38693;SDS011;24447;43.460;25.744;2023-03-24T10:49:15;12.32;;;4.97;;
38693;SDS011;24447;43.460;25.744;2023-03-24T10:51:48;8.43;;;4.35;;
38693;SDS011;24447;43.460;25.744;2023-03-24T10:56:59;8.52;;;4.25;;
38693;SDS011;24447;43.460;25.744;2023-03-24T10:59:35;11.13;;;3.85;;
38693;SDS011;24447;43.460;25.744;2023-03-24T11:04:38;11.98;;;4.88;;
38693;SDS011;24447;43.460;25.744;2023-03-24T11:09:42;10.40;;;4.43;;
38693;SDS011;24447;43.460;25.744;2023-03-24T11:12:28;7.15;;;3.80;;
38693;SDS011;24447;43.460;25.744;2023-03-24T11:17:46;9.32;;;4.25;;
38693;SDS011;24447;43.460;25.744;2023-03-24T11:20:18;8.65;;;4.05;;
38693;SDS011;24447;43.460;25.744;2023-03-24T11:22:57;12.27;;;4.82;;
38693;SDS011;24447;43.460;25.744;2023-03-24T11:25:46;12.30;;;4.45;;
38693;SDS011;24447;43.460;25.744;2023-03-24T11:28:19;11.40;;;5.55;;
38693;SDS011;24447;43.460;25.744;2023-03-24T11:30:47;9.85;;;4.00;;
38693;SDS011;24447;43.460;25.744;2023-03-24T11:33:19;7.50;;;3.53;;
38693;SDS011;24447;43.460;25.744;2023-03-24T11:35:50;9.15;;;4.10;;
38693;SDS011;24447;43.460;25.744;2023-03-24T11:38:17;10.38;;;4.30;;
38693;SDS011;24447;43.460;25.744;2023-03-24T11:40:51;8.98;;;4.55;;
38693;SDS011;24447;43.460;25.744;2023-03-24T11:43:22;6.40;;;3.20;;
38693;SDS011;24447;43.460;25.744;2023-03-24T11:48:40;9.30;;;3.75;;
38693;SDS011;24447;43.460;25.744;2023-03-24T11:51:13;17.58;;;5.47;;
38693;SDS011;24447;43.460;25.744;2023-03-24T11:53:47;7.60;;;3.58;;
38693;SDS011;24447;43.460;25.744;2023-03-24T11:56:26;10.48;;;4.03;;
38693;SDS011;24447;43.460;25.744;2023-03-24T11:59:11;7.40;;;3.17;;
38693;SDS011;24447;43.460;25.744;2023-03-24T12:02:09;7.55;;;3.72;;
38693;SDS011;24447;43.460;25.744;2023-03-24T12:07:43;6.50;;;3.55;;
38693;SDS011;24447;43.460;25.744;2023-03-24T12:13:00;9.63;;;3.90;;
38693;SDS011;24447;43.460;25.744;2023-03-24T12:21:14;8.07;;;3.85;;
38693;SDS011;24447;43.460;25.744;2023-03-24T12:26:41;7.22;;;3.97;;
38693;SDS011;24447;43.460;25.744;2023-03-24T12:29:51;7.97;;;3.97;;
38693;SDS011;24447;43.460;25.744;2023-03-24T12:32:46;10.38;;;3.70;;
38693;SDS011;24447;43.460;25.744;2023-03-24T12:35:03;7.65;;;3.63;;
38693;SDS011;24447;43.460;25.744;2023-03-24T12:45:47;8.88;;;4.22;;
38693;SDS011;24447;43.460;25.744;2023-03-24T12:56:17;9.88;;;3.60;;
38693;SDS011;24447;43.460;25.744;2023-03-24T12:58:50;7.60;;;3.90;;
38693;SDS011;24447;43.460;25.744;2023-03-24T13:01:35;6.97;;;3.28;;
38693;SDS011;24447;43.460;25.744;2023-03-24T13:04:09;8.02;;;3.90;;
38693;SDS011;24447;43.460;25.744;2023-03-24T13:06:41;7.22;;;3.70;;
38693;SDS011;24447;43.460;25.744;2023-03-24T13:12:36;7.45;;;3.67;;
38693;SDS011;24447;43.460;25.744;2023-03-24T13:17:44;8.60;;;3.83;;
38693;SDS011;24447;43.460;25.744;2023-03-24T13:20:18;9.30;;;3.75;;
38693;SDS011;24447;43.460;25.744;2023-03-24T13:22:49;7.80;;;3.72;;
38693;SDS011;24447;43.460;25.744;2023-03-24T13:25:33;12.20;;;4.43;;
38693;SDS011;24447;43.460;25.744;2023-03-24T13:28:06;11.00;;;4.45;;
38693;SDS011;24447;43.460;25.744;2023-03-24T13:30:37;6.78;;;3.85;;
38693;SDS011;24447;43.460;25.744;2023-03-24T13:33:27;6.70;;;3.60;;
38693;SDS011;24447;43.460;25.744;2023-03-24T13:38:38;8.32;;;4.13;;
38693;SDS011;24447;43.460;25.744;2023-03-24T13:41:11;7.05;;;3.67;;
38693;SDS011;24447;43.460;25.744;2023-03-24T13:43:44;5.90;;;3.38;;
38693;SDS011;24447;43.460;25.744;2023-03-24T13:46:15;8.32;;;3.90;;
38693;SDS011;24447;43.460;25.744;2023-03-24T13:48:42;6.95;;;3.70;;
38693;SDS011;24447;43.460;25.744;2023-03-24T13:51:16;8.68;;;3.72;;
38693;SDS011;24447;43.460;25.744;2023-03-24T13:59:25;10.05;;;3.72;;
38693;SDS011;24447;43.460;25.744;2023-03-24T14:02:09;6.93;;;3.50;;
38693;SDS011;24447;43.460;25.744;2023-03-24T14:12:56;6.57;;;3.63;;
38693;SDS011;24447;43.460;25.744;2023-03-24T14:16:24;9.50;;;3.63;;
38693;SDS011;24447;43.460;25.744;2023-03-24T14:23:43;11.25;;;4.50;;
38693;SDS011;24447;43.460;25.744;2023-03-24T14:28:47;9.07;;;3.87;;
38693;SDS011;24447;43.460;25.744;2023-03-24T14:36:39;10.98;;;3.63;;
38693;SDS011;24447;43.460;25.744;2023-03-24T14:41:51;12.18;;;4.32;;
38693;SDS011;24447;43.460;25.744;2023-03-24T14:47:23;11.32;;;4.68;;
38693;SDS011;24447;43.460;25.744;2023-03-24T14:49:54;7.03;;;3.80;;
38693;SDS011;24447;43.460;25.744;2023-03-24T14:52:22;9.40;;;3.67;;
38693;SDS011;24447;43.460;25.744;2023-03-24T14:54:53;15.05;;;4.45;;
38693;SDS011;24447;43.460;25.744;2023-03-24T14:57:23;7.47;;;3.85;;
38693;SDS011;24447;43.460;25.744;2023-03-24T15:02:45;7.57;;;3.92;;
38693;SDS011;24447;43.460;25.744;2023-03-24T15:07:39;11.50;;;4.20;;
38693;SDS011;24447;43.460;25.744;2023-03-24T15:10:13;11.15;;;4.53;;
38693;SDS011;24447;43.460;25.744;2023-03-24T15:12:43;9.52;;;4.05;;
38693;SDS011;24447;43.460;25.744;2023-03-24T15:15:17;17.13;;;6.55;;
38693;SDS011;24447;43.460;25.744;2023-03-24T15:17:46;12.90;;;4.72;;
38693;SDS011;24447;43.460;25.744;2023-03-24T15:20:19;19.70;;;5.93;;
38693;SDS011;24447;43.460;25.744;2023-03-24T15:22:45;17.25;;;5.35;;
38693;SDS011;24447;43.460;25.744;2023-03-24T15:25:12;27.45;;;7.78;;
38693;SDS011;24447;43.460;25.744;2023-03-24T15:27:39;14.02;;;5.50;;
38693;SDS011;24447;43.460;25.744;2023-03-24T15:30:05;14.63;;;5.80;;
38693;SDS011;24447;43.460;25.744;2023-03-24T15:32:38;39.00;;;12.48;;
38693;SDS011;24447;43.460;25.744;2023-03-24T15:35:11;24.10;;;7.97;;
38693;SDS011;24447;43.460;25.744;2023-03-24T15:37:40;20.48;;;8.43;;
38693;SDS011;24447;43.460;25.744;2023-03-24T15:42:50;22.58;;;6.72;;
38693;SDS011;24447;43.460;25.744;2023-03-24T15:45:20;21.65;;;6.78;;
38693;SDS011;24447;43.460;25.744;2023-03-24T15:47:51;14.90;;;4.47;;
38693;SDS011;24447;43.460;25.744;2023-03-24T15:58:15;12.97;;;4.17;;
38693;SDS011;24447;43.460;25.744;2023-03-24T16:00:47;11.13;;;4.25;;
38693;SDS011;24447;43.460;25.744;2023-03-24T16:03:14;10.10;;;4.10;;
38693;SDS011;24447;43.460;25.744;2023-03-24T16:05:46;9.15;;;4.35;;
38693;SDS011;24447;43.460;25.744;2023-03-24T16:11:03;9.00;;;4.30;;
38693;SDS011;24447;43.460;25.744;2023-03-24T16:13:32;14.88;;;4.72;;
38693;SDS011;24447;43.460;25.744;2023-03-24T16:21:01;14.35;;;3.97;;
38693;SDS011;24447;43.460;25.744;2023-03-24T16:23:28;12.65;;;4.85;;
38693;SDS011;24447;43.460;25.744;2023-03-24T16:25:55;9.65;;;5.07;;
38693;SDS011;24447;43.460;25.744;2023-03-24T16:28:21;25.40;;;7.60;;
38693;SDS011;24447;43.460;25.744;2023-03-24T16:30:54;12.07;;;5.22;;
38693;SDS011;24447;43.460;25.744;2023-03-24T16:33:23;12.15;;;5.28;;
38693;SDS011;24447;43.460;25.744;2023-03-24T16:35:49;12.02;;;4.88;;
38693;SDS011;24447;43.460;25.744;2023-03-24T16:38:15;12.38;;;4.88;;
38693;SDS011;24447;43.460;25.744;2023-03-24T16:40:48;10.95;;;4.30;;
38693;SDS011;24447;43.460;25.744;2023-03-24T16:43:16;9.55;;;4.35;;
38693;SDS011;24447;43.460;25.744;2023-03-24T16:45:44;9.57;;;4.43;;
38693;SDS011;24447;43.460;25.744;2023-03-24T16:48:11;13.88;;;4.72;;
38693;SDS011;24447;43.460;25.744;2023-03-24T16:50:41;9.38;;;3.97;;
38693;SDS011;24447;43.460;25.744;2023-03-24T16:55:34;8.43;;;3.80;;
38693;SDS011;24447;43.460;25.744;2023-03-24T16:58:02;14.60;;;4.45;;
38693;SDS011;24447;43.460;25.744;2023-03-24T17:00:28;9.00;;;4.45;;
38693;SDS011;24447;43.460;25.744;2023-03-24T17:02:55;10.32;;;3.70;;
38693;SDS011;24447;43.460;25.744;2023-03-24T17:05:25;10.18;;;4.18;;
38693;SDS011;24447;43.460;25.744;2023-03-24T17:07:53;8.90;;;3.60;;
38693;SDS011;24447;43.460;25.744;2023-03-24T17:10:25;10.52;;;4.05;;
38693;SDS011;24447;43.460;25.744;2023-03-24T17:12:52;8.25;;;3.47;;
38693;SDS011;24447;43.460;25.744;2023-03-24T17:15:23;6.93;;;3.15;;
38693;SDS011;24447;43.460;25.744;2023-03-24T17:17:51;8.93;;;3.50;;
38693;SDS011;24447;43.460;25.744;2023-03-24T17:20:17;9.32;;;4.57;;
38693;SDS011;24447;43.460;25.744;2023-03-24T17:22:44;11.48;;;3.80;;
38693;SDS011;24447;43.460;25.744;2023-03-24T17:25:12;7.93;;;4.00;;
38693;SDS011;24447;43.460;25.744;2023-03-24T17:27:40;9.77;;;4.07;;
38693;SDS011;24447;43.460;25.744;2023-03-24T17:30:06;9.43;;;4.53;;
38693;SDS011;24447;43.460;25.744;2023-03-24T17:32:33;9.77;;;4.05;;
38693;SDS011;24447;43.460;25.744;2023-03-24T17:34:59;7.55;;;3.88;;
38693;SDS011;24447;43.460;25.744;2023-03-24T17:37:27;8.80;;;3.85;;
38693;SDS011;24447;43.460;25.744;2023-03-24T17:39:53;7.95;;;3.70;;
38693;SDS011;24447;43.460;25.744;2023-03-24T17:42:21;15.30;;;4.43;;
38693;SDS011;24447;43.460;25.744;2023-03-24T17:44:48;9.02;;;3.65;;
38693;SDS011;24447;43.460;25.744;2023-03-24T17:47:14;10.23;;;3.92;;
38693;SDS011;24447;43.460;25.744;2023-03-24T17:49:40;11.45;;;3.95;;
38693;SDS011;24447;43.460;25.744;2023-03-24T17:52:06;9.38;;;4.38;;
38693;SDS011;24447;43.460;25.744;2023-03-24T17:54:32;11.30;;;3.38;;
38693;SDS011;24447;43.460;25.744;2023-03-24T17:56:58;11.43;;;4.50;;
38693;SDS011;24447;43.460;25.744;2023-03-24T17:59:24;10.55;;;4.72;;
38693;SDS011;24447;43.460;25.744;2023-03-24T18:01:50;15.77;;;6.00;;
38693;SDS011;24447;43.460;25.744;2023-03-24T18:04:16;12.27;;;4.80;;
38693;SDS011;24447;43.460;25.744;2023-03-24T18:06:42;12.88;;;5.10;;
38693;SDS011;24447;43.460;25.744;2023-03-24T18:09:10;18.13;;;6.60;;